createdAt,value
2018-11-22T12:16:12.653Z,1.87
2018-11-22T12:16:47.981Z,1.70
2018-11-22T12:17:23.430Z,1.73
2018-11-22T12:17:58.781Z,1.40
2018-11-22T12:18:36.853Z,1.50
2018-11-22T12:19:09.679Z,1.70
2018-11-22T12:19:44.980Z,1.30
2018-11-22T12:20:20.844Z,1.50
2018-11-22T12:20:56.221Z,1.77
2018-11-22T12:21:31.458Z,1.50
2018-11-22T12:22:06.983Z,1.40
2018-11-22T12:22:44.462Z,1.60
2018-11-22T12:23:19.611Z,1.50
2018-11-22T12:23:54.990Z,1.60
2018-11-22T12:24:30.375Z,1.60
2018-11-22T12:25:06.433Z,1.47
2018-11-22T12:25:41.876Z,1.70
2018-11-22T12:26:17.144Z,1.53
2018-11-22T12:26:52.538Z,1.47
2018-11-22T12:27:28.030Z,1.60
2018-11-22T12:28:04.112Z,1.40
2018-11-22T12:28:39.610Z,1.20
2018-11-22T12:29:14.919Z,1.40
2018-11-22T12:29:50.157Z,1.60
2018-11-22T12:30:26.988Z,1.43
2018-11-22T12:31:06.524Z,1.57
2018-11-22T12:31:37.750Z,1.70
2018-11-22T12:32:17.542Z,1.33
2018-11-22T12:32:57.748Z,1.53
2018-11-22T12:33:37.419Z,1.90
2018-11-22T12:34:17.534Z,1.73
2018-11-22T12:34:57.678Z,1.50
2018-11-22T12:35:38.040Z,1.50
2018-11-22T12:36:18.079Z,1.40
2018-11-22T12:36:58.272Z,1.10
2018-11-22T12:37:43.189Z,1.50
2018-11-22T12:38:19.601Z,1.43
2018-11-22T12:38:54.740Z,1.33
2018-11-22T12:39:30.361Z,1.30
2018-11-22T12:40:08.466Z,1.60
2018-11-22T12:40:43.832Z,1.10
2018-11-22T12:41:19.226Z,1.40
2018-11-22T12:41:54.791Z,1.50
2018-11-22T12:42:30.123Z,1.60
2018-11-22T12:43:05.609Z,1.40
2018-11-22T12:43:40.831Z,1.30
2018-11-22T12:44:16.442Z,1.50
2018-11-22T12:45:02.364Z,1.53
2018-11-22T12:45:37.963Z,1.30
2018-11-22T12:46:13.353Z,1.50
2018-11-22T12:46:48.914Z,1.40
2018-11-22T12:47:24.178Z,1.67
2018-11-22T12:47:59.286Z,1.40
2018-11-22T12:48:34.678Z,1.20
2018-11-22T12:49:09.950Z,1.40
2018-11-22T12:49:45.186Z,1.43
2018-11-22T12:50:20.841Z,1.50
2018-11-22T12:50:56.166Z,1.47
2018-11-22T12:51:31.660Z,1.17
2018-11-22T12:52:07.201Z,1.20
2018-11-22T12:52:42.493Z,1.27
2018-11-22T12:53:17.919Z,1.40
2018-11-22T12:53:53.215Z,1.37
2018-11-22T12:54:28.809Z,1.30
2018-11-22T12:55:04.056Z,1.30
2018-11-22T12:55:39.567Z,1.43
2018-11-22T12:56:14.820Z,1.80
2018-11-22T12:56:50.154Z,1.40
2018-11-22T12:57:26.159Z,1.30
2018-11-22T12:58:01.541Z,1.50
2018-11-22T12:58:36.823Z,1.37
2018-11-22T12:59:12.588Z,1.60
2018-11-22T12:59:48.046Z,1.43
2018-11-22T13:00:23.588Z,1.40
2018-11-22T13:00:59.760Z,1.60
2018-11-22T13:01:35.049Z,1.20
2018-11-22T13:02:11.396Z,1.50
2018-11-22T13:02:45.883Z,1.50
2018-11-22T13:03:21.239Z,1.50
2018-11-22T13:03:56.563Z,1.70
2018-11-22T13:04:32.142Z,1.90
2018-11-22T13:05:08.821Z,1.43
2018-11-22T13:05:44.210Z,1.67
2018-11-22T13:06:19.668Z,1.33
2018-11-22T13:06:55.158Z,1.57
2018-11-22T13:07:30.318Z,1.47
2018-11-22T13:08:06.020Z,1.70
2018-11-22T13:08:41.313Z,1.73
2018-11-22T13:09:16.705Z,1.47
2018-11-22T13:09:52.051Z,1.50
2018-11-22T13:10:27.310Z,1.50
2018-11-22T13:11:02.741Z,1.17
2018-11-22T13:11:38.246Z,1.70
2018-11-22T13:12:13.783Z,1.70
2018-11-22T13:12:50.396Z,1.67
2018-11-22T13:13:25.717Z,1.70
2018-11-22T13:14:00.878Z,1.90
2018-11-22T13:14:36.597Z,2.17
2018-11-22T13:15:14.769Z,1.73
2018-11-22T13:15:50.281Z,1.77
2018-11-22T13:16:25.604Z,2.10
2018-11-22T13:17:01.027Z,1.73
2018-11-22T13:17:36.537Z,1.47
2018-11-22T13:18:11.880Z,1.80
2018-11-22T13:18:47.080Z,1.60
2018-11-22T13:19:22.388Z,1.73
2018-11-22T13:19:57.851Z,1.50
2018-11-22T13:20:33.107Z,1.73
2018-11-22T13:21:08.443Z,1.60
2018-11-22T13:21:43.870Z,1.70
2018-11-22T13:22:19.297Z,1.70
2018-11-22T13:22:54.858Z,1.90
2018-11-22T13:23:30.370Z,1.60
2018-11-22T13:24:06.178Z,1.83
2018-11-22T13:24:41.581Z,1.63
2018-11-22T13:25:18.840Z,1.93
2018-11-22T13:25:54.544Z,1.80
2018-11-22T13:26:29.966Z,1.80
2018-11-22T13:27:05.703Z,2.10
2018-11-22T13:27:41.088Z,2.00
2018-11-22T13:28:16.458Z,1.80
2018-11-22T13:28:51.757Z,1.90
2018-11-22T13:29:27.077Z,1.70
2018-11-22T13:30:02.319Z,1.60
2018-11-22T13:30:37.713Z,1.57
2018-11-22T13:31:13.035Z,1.60
2018-11-22T13:31:48.383Z,1.70
2018-11-22T13:32:23.919Z,1.63
2018-11-22T13:32:59.904Z,1.70
2018-11-22T13:33:35.238Z,1.70
2018-11-22T13:34:10.270Z,2.00
2018-11-22T13:34:45.530Z,1.70
2018-11-22T13:35:21.504Z,1.70
2018-11-22T13:35:56.848Z,1.80
2018-11-22T13:36:32.153Z,1.57
2018-11-22T13:37:07.601Z,1.77
2018-11-22T13:37:44.481Z,1.90
2018-11-22T13:38:19.823Z,1.93
2018-11-22T13:38:55.224Z,1.77
2018-11-22T13:39:30.547Z,1.70
2018-11-22T13:40:06.792Z,1.80
2018-11-22T13:40:42.127Z,1.60
2018-11-22T13:41:17.635Z,1.40
2018-11-22T13:41:53.045Z,2.00
2018-11-22T13:42:28.242Z,1.60
2018-11-22T13:43:03.493Z,1.67
2018-11-22T13:43:38.694Z,1.90
2018-11-22T13:44:13.882Z,2.00
2018-11-22T13:44:49.004Z,1.57
2018-11-22T13:45:27.416Z,1.80
2018-11-22T13:46:02.944Z,1.70
2018-11-22T13:46:38.196Z,1.57
2018-11-22T13:47:13.590Z,1.80
2018-11-22T13:47:49.797Z,1.77
2018-11-22T13:48:25.293Z,1.60
2018-11-22T13:49:00.477Z,1.93
2018-11-22T13:49:35.726Z,1.97
2018-11-22T13:50:15.482Z,1.97
2018-11-22T13:50:50.962Z,2.10
2018-11-22T13:51:26.290Z,1.73
2018-11-22T13:52:01.575Z,1.73
2018-11-22T13:52:37.305Z,2.00
2018-11-22T13:53:12.179Z,1.90
2018-11-22T13:53:47.451Z,1.77
2018-11-22T13:54:22.838Z,1.87
2018-11-22T13:54:58.094Z,1.50
2018-11-22T13:55:33.498Z,2.13
2018-11-22T13:56:08.963Z,1.60
2018-11-22T13:56:44.374Z,1.57
2018-11-22T13:57:19.744Z,1.87
2018-11-22T13:57:55.229Z,1.90
2018-11-22T13:58:30.594Z,1.80
2018-11-22T13:59:05.994Z,1.67
2018-11-22T13:59:41.232Z,1.50
2018-11-22T14:00:19.915Z,1.70
2018-11-22T14:00:55.426Z,1.77
2018-11-22T14:01:30.671Z,1.73
2018-11-22T14:02:06.183Z,1.83
2018-11-22T14:02:41.835Z,1.70
2018-11-22T14:03:17.341Z,1.60
2018-11-22T14:03:52.614Z,1.73
2018-11-22T14:04:28.066Z,1.70
2018-11-22T14:05:04.234Z,1.40
2018-11-22T14:05:39.703Z,1.50
2018-11-22T14:06:15.111Z,1.90
2018-11-22T14:06:50.435Z,1.90
2018-11-22T14:07:25.844Z,1.70
2018-11-22T14:08:01.384Z,1.50
2018-11-22T14:08:37.082Z,1.80
2018-11-22T14:09:13.049Z,1.83
2018-11-22T14:09:48.306Z,1.37
2018-11-22T14:10:23.553Z,1.70
2018-11-22T14:10:58.973Z,2.00
2018-11-22T14:11:34.193Z,1.40
2018-11-22T14:12:09.506Z,1.80
2018-11-22T14:12:44.920Z,1.73
2018-11-22T14:13:20.420Z,1.80
2018-11-22T14:13:55.878Z,1.47
2018-11-22T14:14:31.406Z,1.90
2018-11-22T14:15:09.889Z,1.57
2018-11-22T14:15:45.130Z,1.70
2018-11-22T14:16:20.566Z,1.90
2018-11-22T14:16:56.521Z,1.50
2018-11-22T14:17:31.220Z,1.70
2018-11-22T14:18:07.542Z,1.43
2018-11-22T14:18:42.842Z,1.90
2018-11-22T14:19:18.273Z,1.70
2018-11-22T14:19:53.587Z,1.90
2018-11-22T14:20:30.615Z,1.30
2018-11-22T14:21:06.226Z,1.53
2018-11-22T14:21:41.690Z,1.60
2018-11-22T14:22:17.079Z,1.70
2018-11-22T14:22:52.312Z,1.73
2018-11-22T14:23:27.581Z,1.50
2018-11-22T14:24:02.916Z,1.50
2018-11-22T14:24:38.255Z,1.73
2018-11-22T14:25:14.772Z,1.87
2018-11-22T14:25:50.245Z,1.80
2018-11-22T14:26:25.487Z,1.87
2018-11-22T14:27:01.163Z,1.63
2018-11-22T14:27:36.257Z,1.80
2018-11-22T14:28:11.562Z,1.60
2018-11-22T14:28:46.872Z,1.47
2018-11-22T14:29:22.250Z,1.50
2018-11-22T14:29:57.838Z,1.73
2018-11-22T14:30:35.019Z,1.50
2018-11-22T14:31:10.168Z,1.80
2018-11-22T14:31:45.418Z,1.63
2018-11-22T14:32:20.567Z,1.60
2018-11-22T14:32:56.042Z,1.80
2018-11-22T14:33:31.326Z,1.83
2018-11-22T14:34:07.408Z,1.53
2018-11-22T14:34:42.798Z,1.70
2018-11-22T14:35:18.997Z,1.57
2018-11-22T14:35:54.400Z,1.40
2018-11-22T14:36:29.623Z,1.40
2018-11-22T14:37:05.010Z,1.90
2018-11-22T14:37:40.481Z,1.80
2018-11-22T14:38:15.970Z,1.50
2018-11-22T14:38:51.237Z,1.80
2018-11-22T14:39:26.759Z,1.50
2018-11-22T14:40:02.076Z,1.70
2018-11-22T14:40:37.499Z,1.47
2018-11-22T14:41:12.920Z,1.73
2018-11-22T14:41:48.194Z,1.70
2018-11-22T14:42:23.491Z,1.77
2018-11-22T14:42:59.050Z,1.50
2018-11-22T14:43:34.437Z,1.67
2018-11-22T14:44:09.785Z,1.37
2018-11-22T14:44:45.286Z,1.87
2018-11-22T14:45:20.740Z,1.87
2018-11-22T14:45:55.944Z,1.70
2018-11-22T14:46:31.349Z,1.57
2018-11-22T14:47:06.669Z,1.67
2018-11-22T14:47:43.098Z,1.97
2018-11-22T14:48:18.421Z,1.83
2018-11-22T14:48:53.783Z,1.50
2018-11-22T14:49:29.114Z,1.40
2018-11-22T14:50:06.330Z,1.60
2018-11-22T14:50:45.359Z,1.60
2018-11-22T14:51:27.965Z,1.63
2018-11-22T14:52:03.260Z,1.63
2018-11-22T14:52:38.914Z,1.70
2018-11-22T14:53:17.091Z,1.90
2018-11-22T14:53:52.649Z,1.60
2018-11-22T14:54:28.071Z,1.27
2018-11-22T14:55:03.682Z,1.80
2018-11-22T14:55:39.727Z,1.67
2018-11-22T14:56:15.261Z,1.70
2018-11-22T14:56:50.449Z,1.33
2018-11-22T14:57:25.677Z,1.37
2018-11-22T14:58:01.112Z,1.43
2018-11-22T14:58:37.222Z,1.50
2018-11-22T14:59:12.618Z,1.77
2018-11-22T14:59:48.004Z,1.40
2018-11-22T15:00:23.435Z,1.70
2018-11-22T15:00:58.688Z,1.70
2018-11-22T15:01:33.943Z,1.50
2018-11-22T15:02:09.340Z,1.63
2018-11-22T15:02:45.928Z,1.67
2018-11-22T15:03:21.240Z,1.87
2018-11-22T15:03:56.667Z,1.20
2018-11-22T15:04:32.054Z,1.70
2018-11-22T15:05:08.039Z,1.87
2018-11-22T15:05:43.572Z,1.73
2018-11-22T15:06:18.558Z,1.60
2018-11-22T15:06:54.204Z,1.70
2018-11-22T15:07:29.430Z,1.70
2018-11-22T15:08:04.859Z,1.57
2018-11-22T15:08:40.489Z,1.80
2018-11-22T15:09:15.716Z,1.60
2018-11-22T15:09:51.186Z,1.83
2018-11-22T15:10:26.651Z,1.90
2018-11-22T15:11:02.214Z,1.60
2018-11-22T15:11:37.525Z,1.70
2018-11-22T15:12:12.927Z,1.63
2018-11-22T15:12:48.880Z,1.67
2018-11-22T15:13:24.183Z,1.60
2018-11-22T15:13:59.510Z,1.60
2018-11-22T15:14:35.044Z,1.60
2018-11-22T15:15:14.044Z,1.70
2018-11-22T15:15:49.237Z,1.77
2018-11-22T15:16:24.627Z,1.80
2018-11-22T15:16:59.948Z,1.63
2018-11-22T15:17:35.297Z,1.73
2018-11-22T15:18:10.509Z,2.17
2018-11-22T15:18:46.071Z,1.50
2018-11-22T15:19:21.345Z,1.80
2018-11-22T15:19:56.900Z,1.80
2018-11-22T15:20:32.210Z,1.73
2018-11-22T15:21:07.782Z,1.60
2018-11-22T15:21:43.238Z,1.40
2018-11-22T15:22:18.691Z,1.67
2018-11-22T15:22:54.804Z,1.73
2018-11-22T15:23:30.273Z,1.70
2018-11-22T15:24:05.753Z,1.50
2018-11-22T15:24:41.085Z,1.60
2018-11-22T15:25:21.462Z,1.70
2018-11-22T15:25:57.075Z,1.80
2018-11-22T15:26:32.504Z,1.53
2018-11-22T15:27:07.985Z,1.60
2018-11-22T15:27:44.078Z,1.77
2018-11-22T15:28:19.933Z,1.60
2018-11-22T15:28:55.211Z,1.60
2018-11-22T15:29:30.746Z,1.70
2018-11-22T15:30:07.891Z,1.97
2018-11-22T15:30:43.318Z,1.83
2018-11-22T15:31:18.604Z,1.60
2018-11-22T15:31:53.802Z,1.57
2018-11-22T15:32:29.416Z,2.00
2018-11-22T15:33:04.855Z,1.83
2018-11-22T15:33:40.212Z,2.00
2018-11-22T15:34:15.723Z,1.80
2018-11-22T15:34:51.175Z,1.90
2018-11-22T15:35:28.858Z,2.23
2018-11-22T15:36:04.187Z,1.63
2018-11-22T15:36:39.533Z,2.00
2018-11-22T15:37:14.862Z,1.80
2018-11-22T15:37:50.711Z,1.80
2018-11-22T15:38:26.157Z,1.83
2018-11-22T15:39:01.559Z,1.70
2018-11-22T15:39:36.823Z,1.53
2018-11-22T15:40:17.826Z,2.10
2018-11-22T15:40:53.222Z,1.80
2018-11-22T15:41:28.475Z,1.80
2018-11-22T15:42:03.757Z,1.90
2018-11-22T15:42:39.155Z,1.80
2018-11-22T15:43:14.573Z,1.77
2018-11-22T15:43:49.864Z,1.80
2018-11-22T15:44:25.362Z,1.77
2018-11-22T15:45:00.701Z,1.90
2018-11-22T15:45:36.111Z,1.60
2018-11-22T15:46:11.487Z,1.70
2018-11-22T15:46:46.853Z,1.87
2018-11-22T15:47:22.217Z,1.70
2018-11-22T15:47:57.544Z,1.80
2018-11-22T15:48:32.651Z,1.80
2018-11-22T15:49:07.937Z,1.70
2018-11-22T15:49:43.289Z,1.83
2018-11-22T15:50:24.009Z,1.93
2018-11-22T15:50:59.369Z,1.60
2018-11-22T15:51:34.859Z,1.70
2018-11-22T15:52:10.063Z,2.10
2018-11-22T15:52:45.642Z,1.87
2018-11-22T15:53:20.940Z,1.70
2018-11-22T15:53:56.281Z,1.70
2018-11-22T15:54:31.774Z,1.53
2018-11-22T15:55:07.730Z,1.80
2018-11-22T15:55:43.225Z,1.53
2018-11-22T15:56:18.538Z,1.77
2018-11-22T15:56:54.281Z,1.87
2018-11-22T15:57:29.648Z,1.50
2018-11-22T15:58:05.058Z,1.80
2018-11-22T15:58:40.359Z,1.77
2018-11-22T15:59:15.594Z,1.53
2018-11-22T15:59:50.820Z,1.60
2018-11-22T16:00:28.858Z,1.50
2018-11-22T16:01:04.331Z,2.10
2018-11-22T16:01:39.616Z,1.47
2018-11-22T16:02:14.984Z,1.40
2018-11-22T16:02:50.894Z,1.50
2018-11-22T16:03:26.074Z,1.90
2018-11-22T16:04:01.517Z,1.70
2018-11-22T16:04:36.822Z,2.00
2018-11-22T16:05:13.456Z,1.60
2018-11-22T16:05:48.579Z,1.80
2018-11-22T16:06:23.941Z,1.57
2018-11-22T16:06:59.748Z,1.60
2018-11-22T16:07:35.179Z,1.53
2018-11-22T16:08:10.628Z,1.80
2018-11-22T16:08:46.000Z,1.43
2018-11-22T16:09:21.252Z,1.80
2018-11-22T16:09:56.843Z,1.80
2018-11-22T16:10:34.255Z,1.70
2018-11-22T16:11:14.826Z,2.13
2018-11-22T16:11:45.066Z,1.77
2018-11-22T16:12:20.598Z,1.63
2018-11-22T16:12:57.854Z,1.60
2018-11-22T16:13:33.397Z,1.90
2018-11-22T16:14:08.829Z,1.67
2018-11-22T16:14:44.218Z,1.70
2018-11-22T16:15:26.501Z,1.80
2018-11-22T16:16:02.013Z,2.00
2018-11-22T16:16:37.355Z,1.87
2018-11-22T16:17:12.704Z,1.90
2018-11-22T16:17:48.043Z,2.00
2018-11-22T16:18:23.371Z,1.90
2018-11-22T16:18:58.598Z,1.70
2018-11-22T16:19:34.021Z,2.00
2018-11-22T16:20:09.822Z,2.10
2018-11-22T16:20:45.176Z,1.90
2018-11-22T16:21:20.679Z,1.93
2018-11-22T16:21:56.094Z,1.87
2018-11-22T16:22:31.511Z,2.00
2018-11-22T16:23:07.469Z,1.97
2018-11-22T16:23:42.991Z,2.23
2018-11-22T16:24:18.275Z,2.00
2018-11-22T16:24:53.659Z,1.87
2018-11-22T16:25:28.906Z,2.33
2018-11-22T16:26:04.351Z,2.20
2018-11-22T16:26:39.742Z,2.13
2018-11-22T16:27:15.724Z,2.03
2018-11-22T16:27:51.097Z,2.17
2018-11-22T16:28:26.631Z,1.87
2018-11-22T16:29:01.948Z,1.80
2018-11-22T16:29:37.330Z,2.17
2018-11-22T16:30:17.107Z,2.03
2018-11-22T16:30:52.474Z,2.07
2018-11-22T16:31:27.882Z,1.80
2018-11-22T16:32:03.329Z,1.80
2018-11-22T16:32:38.778Z,2.07
2018-11-22T16:33:14.018Z,2.40
2018-11-22T16:33:49.430Z,1.80
2018-11-22T16:34:24.824Z,2.20
2018-11-22T16:35:00.093Z,2.00
2018-11-22T16:35:36.224Z,2.10
2018-11-22T16:36:11.574Z,2.37
2018-11-22T16:36:46.898Z,2.20
2018-11-22T16:37:22.327Z,2.00
2018-11-22T16:37:57.938Z,2.00
2018-11-22T16:38:33.204Z,2.20
2018-11-22T16:39:10.876Z,1.90
2018-11-22T16:39:46.207Z,2.37
2018-11-22T16:40:23.310Z,2.20
2018-11-22T16:40:58.834Z,2.10
2018-11-22T16:41:34.314Z,2.27
2018-11-22T16:42:09.817Z,1.90
2018-11-22T16:42:46.263Z,2.23
2018-11-22T16:43:21.638Z,2.20
2018-11-22T16:43:59.631Z,1.90
2018-11-22T16:44:32.455Z,1.80
2018-11-22T16:45:14.190Z,2.23
2018-11-22T16:45:49.679Z,1.83
2018-11-22T16:46:25.120Z,1.80
2018-11-22T16:47:00.397Z,1.77
2018-11-22T16:47:35.825Z,2.10
2018-11-22T16:48:12.683Z,1.97
2018-11-22T16:48:48.192Z,1.90
2018-11-22T16:49:23.618Z,2.07
2018-11-22T16:49:59.229Z,2.20
2018-11-22T16:50:35.524Z,1.87
2018-11-22T16:51:11.535Z,2.07
2018-11-22T16:51:47.116Z,2.10
2018-11-22T16:52:22.340Z,1.97
2018-11-22T16:52:57.917Z,1.97
2018-11-22T16:53:33.171Z,2.07
2018-11-22T16:54:08.400Z,1.73
2018-11-22T16:54:43.753Z,2.13
2018-11-22T16:55:20.009Z,2.00
2018-11-22T16:55:55.304Z,2.00
2018-11-22T16:56:31.031Z,2.23
2018-11-22T16:57:06.211Z,2.40
2018-11-22T16:57:43.923Z,1.80
2018-11-22T16:58:19.332Z,1.77
2018-11-22T16:58:54.663Z,1.90
2018-11-22T16:59:29.992Z,2.10
2018-11-22T17:00:05.610Z,1.80
2018-11-22T17:00:41.592Z,2.07
2018-11-22T17:01:17.033Z,1.83
2018-11-22T17:01:52.508Z,2.00
2018-11-22T17:02:27.726Z,2.00
2018-11-22T17:03:05.403Z,1.73
2018-11-22T17:03:40.886Z,1.77
2018-11-22T17:04:16.083Z,2.20
2018-11-22T17:04:51.625Z,1.80
2018-11-22T17:05:26.887Z,1.73
2018-11-22T17:06:02.189Z,2.00
2018-11-22T17:06:37.840Z,1.83
2018-11-22T17:07:13.247Z,1.90
2018-11-22T17:07:49.033Z,2.00
2018-11-22T17:08:24.396Z,1.87
2018-11-22T17:09:00.296Z,2.00
2018-11-22T17:09:35.707Z,1.50
2018-11-22T17:10:13.414Z,2.03
2018-11-22T17:10:49.026Z,2.10
2018-11-22T17:11:24.522Z,2.03
2018-11-22T17:11:59.905Z,2.40
2018-11-22T17:12:35.179Z,2.17
2018-11-22T17:13:10.567Z,2.00
2018-11-22T17:13:45.888Z,1.70
2018-11-22T17:14:21.491Z,1.87
2018-11-22T17:14:56.899Z,1.83
2018-11-22T17:15:35.376Z,1.90
2018-11-22T17:16:10.525Z,1.80
2018-11-22T17:16:45.797Z,2.00
2018-11-22T17:17:21.255Z,2.00
2018-11-22T17:17:57.471Z,1.90
2018-11-22T17:18:32.845Z,1.80
2018-11-22T17:19:08.313Z,2.13
2018-11-22T17:19:44.716Z,1.90
2018-11-22T17:20:21.306Z,2.03
2018-11-22T17:20:56.700Z,1.90
2018-11-22T17:21:31.902Z,1.90
2018-11-22T17:22:07.371Z,1.97
2018-11-22T17:22:43.502Z,2.03
2018-11-22T17:23:18.782Z,1.83
2018-11-22T17:23:54.152Z,1.80
2018-11-22T17:24:29.639Z,1.97
2018-11-22T17:25:06.749Z,1.90
2018-11-22T17:25:42.242Z,1.87
2018-11-22T17:26:17.657Z,1.70
2018-11-22T17:26:53.130Z,1.50
2018-11-22T17:27:28.310Z,2.03
2018-11-22T17:28:05.374Z,1.80
2018-11-22T17:28:40.783Z,1.90
2018-11-22T17:29:15.985Z,1.90
2018-11-22T17:29:51.417Z,1.87
2018-11-22T17:30:28.751Z,1.80
2018-11-22T17:31:04.169Z,1.90
2018-11-22T17:31:39.583Z,1.87
2018-11-22T17:32:14.951Z,1.60
2018-11-22T17:32:50.256Z,1.60
2018-11-22T17:33:25.501Z,1.80
2018-11-22T17:34:00.831Z,1.60
2018-11-22T17:34:36.250Z,1.97
2018-11-22T17:35:14.359Z,1.90
2018-11-22T17:35:49.700Z,1.40
2018-11-22T17:36:25.209Z,1.63
2018-11-22T17:37:00.956Z,2.00
2018-11-22T17:37:36.128Z,1.70
2018-11-22T17:38:12.463Z,1.63
2018-11-22T17:38:48.289Z,1.83
2018-11-22T17:39:23.599Z,1.90
2018-11-22T17:39:59.057Z,1.73
2018-11-22T17:40:39.593Z,1.80
2018-11-22T17:41:15.026Z,1.63
2018-11-22T17:41:50.454Z,2.23
2018-11-22T17:42:25.780Z,1.80
2018-11-22T17:43:01.427Z,1.73
2018-11-22T17:43:36.969Z,1.77
2018-11-22T17:44:12.414Z,1.73
2018-11-22T17:44:47.787Z,2.00
2018-11-22T17:45:24.733Z,2.00
2018-11-22T17:46:00.196Z,1.47
2018-11-22T17:46:36.056Z,2.00
2018-11-22T17:47:11.374Z,1.90
2018-11-22T17:47:46.589Z,1.90
2018-11-22T17:48:21.973Z,1.80
2018-11-22T17:48:57.437Z,1.80
2018-11-22T17:49:32.920Z,1.80
2018-11-22T17:50:12.116Z,1.80
2018-11-22T17:50:48.991Z,1.70
2018-11-22T17:51:24.449Z,1.70
2018-11-22T17:51:59.966Z,1.93
2018-11-22T17:52:35.403Z,1.90
2018-11-22T17:53:11.942Z,2.07
2018-11-22T17:53:47.265Z,2.03
2018-11-22T17:54:22.552Z,1.90
2018-11-22T17:54:57.964Z,1.87
2018-11-22T17:55:34.291Z,2.20
2018-11-22T17:56:09.621Z,1.93
2018-11-22T17:56:45.102Z,2.40
2018-11-22T17:57:20.396Z,1.83
2018-11-22T17:57:55.833Z,2.07
2018-11-22T17:58:31.441Z,2.00
2018-11-22T17:59:06.729Z,2.53
2018-11-22T17:59:42.023Z,2.23
2018-11-22T18:00:24.290Z,2.00
2018-11-22T18:00:59.896Z,2.37
2018-11-22T18:01:35.742Z,1.93
2018-11-22T18:02:11.373Z,2.17
2018-11-22T18:02:48.191Z,2.00
2018-11-22T18:03:23.831Z,2.00
2018-11-22T18:03:59.056Z,2.20
2018-11-22T18:04:34.573Z,1.80
2018-11-22T18:05:10.838Z,1.97
2018-11-22T18:05:46.251Z,1.73
2018-11-22T18:06:21.751Z,2.20
2018-11-22T18:06:57.128Z,2.40
2018-11-22T18:07:32.636Z,2.20
2018-11-22T18:08:07.997Z,2.17
2018-11-22T18:08:43.469Z,2.20
2018-11-22T18:09:18.944Z,2.30
2018-11-22T18:09:54.523Z,1.80
2018-11-22T18:10:31.939Z,2.27
2018-11-22T18:11:07.633Z,2.10
2018-11-22T18:11:43.042Z,1.93
2018-11-22T18:12:18.638Z,2.10
2018-11-22T18:12:54.956Z,2.70
2018-11-22T18:13:30.302Z,2.23
2018-11-22T18:14:06.425Z,1.80
2018-11-22T18:14:41.894Z,1.90
2018-11-22T18:15:18.821Z,2.33
2018-11-22T18:15:58.884Z,2.20
2018-11-22T18:16:34.321Z,2.20
2018-11-22T18:17:09.593Z,2.10
2018-11-22T18:17:45.276Z,2.13
2018-11-22T18:18:20.589Z,2.67
2018-11-22T18:18:56.000Z,2.30
2018-11-22T18:19:31.535Z,2.33
2018-11-22T18:20:14.467Z,2.13
2018-11-22T18:20:49.817Z,2.00
2018-11-22T18:21:25.127Z,2.27
2018-11-22T18:22:00.485Z,1.90
2018-11-22T18:22:36.150Z,2.00
2018-11-22T18:23:11.726Z,1.87
2018-11-22T18:23:47.127Z,2.47
2018-11-22T18:24:22.713Z,2.30
2018-11-22T18:24:57.966Z,2.63
2018-11-22T18:25:34.351Z,2.30
2018-11-22T18:26:09.744Z,1.90
2018-11-22T18:26:45.195Z,1.90
2018-11-22T18:27:20.452Z,2.63
2018-11-22T18:27:55.981Z,2.50
2018-11-22T18:28:31.090Z,2.67
2018-11-22T18:29:06.326Z,2.47
2018-11-22T18:29:41.631Z,2.50
2018-11-22T18:30:19.468Z,2.47
2018-11-22T18:30:54.872Z,2.70
2018-11-22T18:31:30.312Z,1.93
2018-11-22T18:32:05.894Z,2.07
2018-11-22T18:32:41.205Z,2.13
2018-11-22T18:33:16.928Z,2.30
2018-11-22T18:33:52.225Z,2.27
2018-11-22T18:34:27.676Z,2.23
2018-11-22T18:35:02.912Z,2.40
2018-11-22T18:35:38.433Z,2.30
2018-11-22T18:36:13.850Z,2.30
2018-11-22T18:36:49.245Z,2.60
2018-11-22T18:37:24.661Z,2.20
2018-11-22T18:37:59.818Z,2.33
2018-11-22T18:38:35.071Z,1.97
2018-11-22T18:39:11.104Z,2.40
2018-11-22T18:39:46.816Z,2.30
2018-11-22T18:40:24.130Z,2.30
2018-11-22T18:40:59.468Z,2.27
2018-11-22T18:41:35.062Z,2.40
2018-11-22T18:42:10.352Z,2.27
2018-11-22T18:42:46.683Z,2.50
2018-11-22T18:43:22.181Z,2.40
2018-11-22T18:43:57.573Z,2.93
2018-11-22T18:44:32.848Z,2.47
2018-11-22T18:45:11.659Z,2.17
2018-11-22T18:45:48.142Z,2.70
2018-11-22T18:46:23.483Z,2.13
2018-11-22T18:46:59.085Z,2.70
2018-11-22T18:47:34.282Z,1.83
2018-11-22T18:48:11.811Z,2.50
2018-11-22T18:48:47.321Z,2.63
2018-11-22T18:49:22.947Z,2.30
2018-11-22T18:49:58.476Z,2.50
2018-11-22T18:50:35.307Z,2.70
2018-11-22T18:51:10.850Z,2.00
2018-11-22T18:51:46.184Z,2.33
2018-11-22T18:52:21.712Z,2.70
2018-11-22T18:52:57.061Z,1.93
2018-11-22T18:53:32.405Z,2.50
2018-11-22T18:54:07.742Z,2.40
2018-11-22T18:54:43.502Z,2.87
2018-11-22T18:55:19.099Z,2.10
2018-11-22T18:55:54.727Z,2.10
2018-11-22T18:56:33.154Z,2.43
2018-11-22T18:57:05.657Z,2.60
2018-11-22T18:57:41.487Z,2.47
2018-11-22T18:58:16.808Z,2.37
2018-11-22T18:58:52.169Z,2.37
2018-11-22T18:59:27.415Z,2.30
2018-11-22T19:00:03.035Z,2.30
2018-11-22T19:00:40.579Z,2.87
2018-11-22T19:01:15.740Z,2.13
2018-11-22T19:01:51.228Z,2.60
2018-11-22T19:02:26.596Z,2.43
2018-11-22T19:03:04.166Z,2.40
2018-11-22T19:03:39.457Z,2.43
2018-11-22T19:04:15.031Z,2.57
2018-11-22T19:04:50.415Z,2.43
2018-11-22T19:05:25.903Z,2.70
2018-11-22T19:06:01.240Z,2.70
2018-11-22T19:06:36.619Z,2.80
2018-11-22T19:07:12.138Z,2.53
2018-11-22T19:07:48.710Z,2.60
2018-11-22T19:08:24.410Z,2.40
2018-11-22T19:08:59.591Z,2.40
2018-11-22T19:09:35.314Z,2.23
2018-11-22T19:10:14.059Z,2.50
2018-11-22T19:10:49.416Z,2.40
2018-11-22T19:11:24.737Z,2.60
2018-11-22T19:12:00.170Z,2.33
2018-11-22T19:12:35.499Z,2.23
2018-11-22T19:13:11.758Z,2.20
2018-11-22T19:13:47.313Z,3.17
2018-11-22T19:14:22.628Z,2.70
2018-11-22T19:14:58.041Z,2.30
2018-11-22T19:15:34.934Z,2.70
2018-11-22T19:16:10.216Z,2.73
2018-11-22T19:16:45.686Z,2.30
2018-11-22T19:17:21.194Z,2.87
2018-11-22T19:17:56.655Z,2.60
2018-11-22T19:18:32.081Z,2.33
2018-11-22T19:19:07.599Z,2.67
2018-11-22T19:19:43.170Z,2.37
2018-11-22T19:20:21.792Z,2.70
2018-11-22T19:20:57.277Z,2.30
2018-11-22T19:21:32.684Z,2.50
2018-11-22T19:22:07.940Z,2.43
2018-11-22T19:22:44.687Z,2.47
2018-11-22T19:23:20.398Z,2.20
2018-11-22T19:23:55.883Z,2.60
2018-11-22T19:24:31.052Z,2.40
2018-11-22T19:25:07.047Z,2.10
2018-11-22T19:25:42.405Z,2.60
2018-11-22T19:26:17.690Z,2.63
2018-11-22T19:26:53.057Z,2.83
2018-11-22T19:27:28.401Z,2.30
2018-11-22T19:28:04.563Z,2.30
2018-11-22T19:28:39.929Z,2.40
2018-11-22T19:29:15.140Z,2.47
2018-11-22T19:29:50.537Z,2.67
2018-11-22T19:30:27.633Z,2.93
2018-11-22T19:31:02.913Z,2.70
2018-11-22T19:31:38.239Z,2.70
2018-11-22T19:32:13.506Z,2.53
2018-11-22T19:32:49.732Z,2.83
2018-11-22T19:33:25.018Z,2.67
2018-11-22T19:34:00.435Z,2.80
2018-11-22T19:34:35.979Z,2.70
2018-11-22T19:35:13.165Z,2.63
2018-11-22T19:35:50.271Z,2.97
2018-11-22T19:36:25.679Z,2.87
2018-11-22T19:37:01.016Z,2.60
2018-11-22T19:37:36.452Z,2.33
2018-11-22T19:38:11.673Z,2.80
2018-11-22T19:38:47.067Z,2.40
2018-11-22T19:39:22.411Z,2.63
2018-11-22T19:39:57.983Z,2.47
2018-11-22T19:40:35.561Z,2.90
2018-11-22T19:41:10.868Z,2.80
2018-11-22T19:41:46.272Z,2.70
2018-11-22T19:42:21.632Z,2.27
2018-11-22T19:42:58.208Z,2.80
2018-11-22T19:43:33.597Z,3.13
2018-11-22T19:44:08.961Z,2.50
2018-11-22T19:44:44.361Z,2.57
2018-11-22T19:45:21.187Z,2.50
2018-11-22T19:45:56.826Z,2.27
2018-11-22T19:46:32.200Z,2.67
2018-11-22T19:47:07.633Z,2.77
2018-11-22T19:47:43.125Z,2.57
2018-11-22T19:48:18.545Z,3.10
2018-11-22T19:48:54.046Z,2.60
2018-11-22T19:49:29.681Z,2.43
2018-11-22T19:50:05.283Z,2.13
2018-11-22T19:50:40.721Z,2.93
2018-11-22T19:51:16.235Z,2.73
2018-11-22T19:51:51.681Z,2.80
2018-11-22T19:52:27.237Z,2.83
2018-11-22T19:53:04.203Z,2.60
2018-11-22T19:53:39.533Z,2.57
2018-11-22T19:54:14.898Z,2.83
2018-11-22T19:54:50.119Z,3.00
2018-11-22T19:55:27.340Z,3.23
2018-11-22T19:56:02.721Z,2.83
2018-11-22T19:56:37.964Z,3.00
2018-11-22T19:57:13.191Z,2.80
2018-11-22T19:57:50.719Z,3.17
2018-11-22T19:58:25.901Z,2.93
2018-11-22T19:59:01.299Z,3.30
2018-11-22T19:59:37.319Z,3.00
2018-11-22T20:00:14.856Z,3.10
2018-11-22T20:00:50.188Z,3.07
2018-11-22T20:01:25.592Z,2.97
2018-11-22T20:02:00.956Z,2.93
2018-11-22T20:02:36.468Z,3.10
2018-11-22T20:03:11.875Z,3.03
2018-11-22T20:03:47.455Z,2.93
2018-11-22T20:04:22.770Z,3.17
2018-11-22T20:04:58.323Z,3.20
2018-11-22T20:05:35.437Z,2.70
2018-11-22T20:06:10.982Z,2.97
2018-11-22T20:06:47.348Z,2.93
2018-11-22T20:07:22.506Z,3.10
2018-11-22T20:07:59.818Z,2.80
2018-11-22T20:08:35.182Z,2.73
2018-11-22T20:09:12.461Z,2.70
2018-11-22T20:09:47.979Z,2.80
2018-11-22T20:10:30.578Z,3.20
2018-11-22T20:11:04.780Z,2.87
2018-11-22T20:11:40.516Z,2.83
2018-11-22T20:12:16.024Z,3.10